createdAt,value
2023-05-06T00:03:25.869Z,5.57
2023-05-06T00:08:17.647Z,4.18
2023-05-06T00:13:09.546Z,4.55
2023-05-06T00:18:01.564Z,4.47
2023-05-06T00:22:53.381Z,4.88
2023-05-06T00:27:45.042Z,7.03
2023-05-06T00:32:36.723Z,8.07
2023-05-06T00:37:28.302Z,4.93
2023-05-06T00:42:22.591Z,6.72
2023-05-06T00:47:14.287Z,5.72
2023-05-06T00:52:06.101Z,9.93
2023-05-06T00:56:57.771Z,5.93
2023-05-06T01:01:49.401Z,4.70
2023-05-06T01:06:49.903Z,6.20
2023-05-06T01:11:48.892Z,4.47
2023-05-06T01:16:41.551Z,4.75
2023-05-06T01:21:34.957Z,7.93
2023-05-06T01:26:27.450Z,5.28
2023-05-06T01:31:27.299Z,7.75
2023-05-06T01:36:33.481Z,10.15
2023-05-06T01:41:25.519Z,4.43
2023-05-06T01:46:20.262Z,5.53
2023-05-06T01:51:12.020Z,7.93
2023-05-06T01:56:03.742Z,5.75
2023-05-06T02:00:55.313Z,9.95
2023-05-06T02:05:46.905Z,8.38
2023-05-06T02:10:38.550Z,5.28
2023-05-06T02:15:30.219Z,9.50
2023-05-06T02:20:21.944Z,9.25
2023-05-06T02:25:13.618Z,6.97
2023-05-06T02:30:06.647Z,7.53
2023-05-06T02:34:58.315Z,9.57
2023-05-06T02:39:49.870Z,8.48
2023-05-06T02:44:41.725Z,11.75
2023-05-06T02:49:33.342Z,8.13
2023-05-06T02:54:27.262Z,7.80
2023-05-06T02:59:18.874Z,11.10
2023-05-06T03:04:10.749Z,4.18
2023-05-06T03:09:02.375Z,6.07
2023-05-06T03:13:54.038Z,11.35
2023-05-06T03:18:45.575Z,7.13
2023-05-06T03:23:37.204Z,3.22
2023-05-06T03:28:28.784Z,4.70
2023-05-06T03:33:20.511Z,4.15
2023-05-06T03:38:12.207Z,4.10
2023-05-06T03:43:03.773Z,4.82
2023-05-06T03:47:55.643Z,5.03
2023-05-06T03:52:47.301Z,9.40
2023-05-06T03:57:38.929Z,6.07
2023-05-06T04:02:30.826Z,4.53
2023-05-06T04:07:22.623Z,7.03
2023-05-06T04:12:14.220Z,9.27
2023-05-06T04:17:05.787Z,39.05
2023-05-06T04:21:58.590Z,9.23
2023-05-06T04:26:50.496Z,9.23
2023-05-06T04:31:42.334Z,9.82
2023-05-06T04:36:34.359Z,10.38
2023-05-06T04:41:26.100Z,11.15
2023-05-06T04:46:17.780Z,15.48
2023-05-06T04:51:09.453Z,11.32
2023-05-06T04:56:01.106Z,17.65
2023-05-06T05:00:52.674Z,17.05
2023-05-06T05:05:44.302Z,14.93
2023-05-06T05:10:36.165Z,8.63
2023-05-06T05:15:27.807Z,12.38
2023-05-06T05:20:19.382Z,13.27
2023-05-06T05:25:11.094Z,16.17
2023-05-06T05:30:02.865Z,16.42
2023-05-06T05:34:54.531Z,16.15
2023-05-06T05:39:46.120Z,14.82
2023-05-06T05:44:37.798Z,18.00
2023-05-06T05:49:29.793Z,23.58
2023-05-06T05:54:21.403Z,21.88
2023-05-06T05:59:13.043Z,12.60
2023-05-06T06:04:05.176Z,15.23
2023-05-06T06:08:56.997Z,13.05
2023-05-06T06:13:48.578Z,13.27
2023-05-06T06:18:40.112Z,13.95
2023-05-06T06:23:31.746Z,21.42
2023-05-06T06:28:23.371Z,14.13
2023-05-06T06:33:15.065Z,16.27
2023-05-06T06:38:06.621Z,10.63
2023-05-06T06:42:58.189Z,15.50
2023-05-06T06:47:50.169Z,11.50
2023-05-06T06:52:41.898Z,14.45
2023-05-06T06:57:33.459Z,13.10
2023-05-06T07:02:25.059Z,15.77
2023-05-06T07:07:16.700Z,13.85
2023-05-06T07:12:08.290Z,12.65
2023-05-06T07:17:01.027Z,9.52
2023-05-06T07:21:52.992Z,9.63
2023-05-06T07:26:44.955Z,11.52
2023-05-06T07:31:36.657Z,16.88
2023-05-06T07:36:28.851Z,11.23
2023-05-06T07:41:21.077Z,13.63
2023-05-06T07:46:12.698Z,16.35
2023-05-06T07:51:04.645Z,14.05
2023-05-06T07:56:01.916Z,16.08
2023-05-06T08:00:53.647Z,13.48
2023-05-06T08:05:45.230Z,11.63
2023-05-06T08:10:36.821Z,9.85
2023-05-06T08:15:28.436Z,12.07
2023-05-06T08:20:20.243Z,13.40
2023-05-06T08:25:12.100Z,12.20
2023-05-06T08:30:04.347Z,17.60
2023-05-06T08:34:56.133Z,12.90
2023-05-06T08:39:47.799Z,10.95
2023-05-06T08:44:39.708Z,8.48
2023-05-06T08:49:31.600Z,10.80
2023-05-06T08:54:26.602Z,9.07
2023-05-06T08:59:23.744Z,9.15
2023-05-06T09:04:16.575Z,12.00
2023-05-06T09:09:08.162Z,10.02
2023-05-06T09:14:14.431Z,10.52
2023-05-06T09:19:06.591Z,16.13
2023-05-06T09:23:59.283Z,9.95
2023-05-06T09:28:51.493Z,5.68
2023-05-06T09:33:43.043Z,11.07
2023-05-06T09:38:34.624Z,7.80
2023-05-06T09:43:26.869Z,9.77
2023-05-06T09:48:18.920Z,8.57
2023-05-06T09:53:12.199Z,6.75
2023-05-06T09:58:05.584Z,11.02
2023-05-06T10:02:58.872Z,9.85
2023-05-06T10:07:53.393Z,10.30
2023-05-06T10:12:46.292Z,10.98
2023-05-06T10:17:39.893Z,9.57
2023-05-06T10:22:55.323Z,6.85
2023-05-06T10:27:48.312Z,11.73
2023-05-06T10:32:43.122Z,13.20
2023-05-06T10:37:36.094Z,9.20
2023-05-06T10:42:30.452Z,6.50
2023-05-06T10:47:22.471Z,6.93
2023-05-06T10:52:14.946Z,11.70
2023-05-06T10:57:10.889Z,9.85
2023-05-06T11:02:02.402Z,10.77
2023-05-06T11:06:54.178Z,10.18
2023-05-06T11:12:11.693Z,8.52
2023-05-06T11:17:08.978Z,5.60
2023-05-06T11:22:02.740Z,7.78
2023-05-06T11:26:55.962Z,6.20
2023-05-06T11:31:47.984Z,6.30
2023-05-06T11:36:48.233Z,6.80
2023-05-06T11:41:40.969Z,7.47
2023-05-06T11:46:33.630Z,8.90
2023-05-06T11:51:25.930Z,6.03
2023-05-06T11:56:17.539Z,7.80
2023-05-06T12:01:09.868Z,4.93
2023-05-06T12:06:01.713Z,3.45
2023-05-06T12:10:55.946Z,2.45
2023-05-06T12:15:49.790Z,4.15
2023-05-06T12:20:41.530Z,5.53
2023-05-06T12:25:33.302Z,4.28
2023-05-06T12:30:31.959Z,3.78
2023-05-06T12:35:30.896Z,4.70
2023-05-06T12:40:22.561Z,4.55
2023-05-06T12:45:15.408Z,3.63
2023-05-06T12:50:07.573Z,2.95
2023-05-06T12:55:01.592Z,5.10
2023-05-06T12:59:53.827Z,2.20
2023-05-06T13:04:46.896Z,4.68
2023-05-06T13:09:38.804Z,5.60
2023-05-06T13:14:30.654Z,5.47
2023-05-06T13:19:32.472Z,2.42
2023-05-06T13:24:25.161Z,5.60
2023-05-06T13:29:16.797Z,2.95
2023-05-06T13:34:08.408Z,3.83
2023-05-06T13:39:00.564Z,4.40
2023-05-06T13:43:52.466Z,3.17
2023-05-06T13:48:44.074Z,2.97
2023-05-06T13:53:35.714Z,6.07
2023-05-06T13:58:27.278Z,4.80
2023-05-06T14:03:18.874Z,3.33
2023-05-06T14:08:10.614Z,2.92
2023-05-06T14:13:02.745Z,3.25
2023-05-06T14:17:55.617Z,2.17
2023-05-06T14:22:48.124Z,2.90
2023-05-06T14:27:39.803Z,4.85
2023-05-06T14:32:32.568Z,4.90
2023-05-06T14:37:24.237Z,4.15
2023-05-06T14:42:16.186Z,3.60
2023-05-06T14:47:07.843Z,3.83
2023-05-06T14:51:59.520Z,2.42
2023-05-06T14:56:51.427Z,3.38
2023-05-06T15:01:43.158Z,2.72
2023-05-06T15:06:34.941Z,2.10
2023-05-06T15:11:26.661Z,3.58
2023-05-06T15:16:18.236Z,2.72
2023-05-06T15:21:10.041Z,1.55
2023-05-06T15:27:32.087Z,2.00
2023-05-06T15:32:23.953Z,2.08
2023-05-06T15:37:19.207Z,1.85
2023-05-06T15:42:11.065Z,1.27
2023-05-06T15:47:03.284Z,2.47
2023-05-06T15:51:54.881Z,2.08
2023-05-06T15:56:46.641Z,2.42
2023-05-06T16:06:32.859Z,1.60
2023-05-06T16:11:24.482Z,1.00
2023-05-06T16:16:16.155Z,1.35
2023-05-06T16:21:08.082Z,2.25
2023-05-06T16:26:01.238Z,3.25
2023-05-06T16:30:52.874Z,1.58
2023-05-06T16:35:45.844Z,1.67
2023-05-06T16:40:42.676Z,1.88
2023-05-06T16:45:34.438Z,4.53
2023-05-06T16:50:26.167Z,1.00
2023-05-06T16:55:17.738Z,1.88
2023-05-06T17:00:12.229Z,1.73
2023-05-06T17:05:04.571Z,1.30
2023-05-06T17:09:56.280Z,1.88
2023-05-06T17:14:47.836Z,2.28
2023-05-06T17:19:39.419Z,2.88
2023-05-06T17:24:31.001Z,2.78
2023-05-06T17:29:22.704Z,1.83
2023-05-06T17:34:14.523Z,1.80
2023-05-06T17:39:06.295Z,2.08
2023-05-06T17:43:57.974Z,0.85
2023-05-06T17:48:49.680Z,2.22
2023-05-06T17:53:41.582Z,1.50
2023-05-06T17:58:33.314Z,2.40
2023-05-06T18:03:25.059Z,1.13
2023-05-06T18:08:16.702Z,1.70
2023-05-06T18:13:08.668Z,12.63
2023-05-06T18:18:00.380Z,7.85
2023-05-06T18:22:52.218Z,1.70
2023-05-06T18:27:43.881Z,1.88
2023-05-06T18:32:35.796Z,2.65
2023-05-06T18:37:30.667Z,1.55
2023-05-06T18:42:23.198Z,4.25
2023-05-06T18:47:14.824Z,2.53
2023-05-06T18:52:06.721Z,4.25
2023-05-06T18:56:58.804Z,4.47
2023-05-06T19:01:50.836Z,4.30
2023-05-06T19:06:42.598Z,3.53
2023-05-06T19:11:34.974Z,3.42
2023-05-06T19:16:26.664Z,4.30
2023-05-06T19:21:18.769Z,7.95
2023-05-06T19:26:13.640Z,3.45
2023-05-06T19:31:12.048Z,3.25
2023-05-06T19:36:04.393Z,4.78
2023-05-06T19:40:56.427Z,3.25
2023-05-06T19:45:48.289Z,4.63
2023-05-06T19:50:40.276Z,4.72
2023-05-06T19:55:32.154Z,2.60
2023-05-06T20:00:25.541Z,3.10
2023-05-06T20:05:17.150Z,3.33
2023-05-06T20:10:10.107Z,2.88
2023-05-06T20:15:03.709Z,3.45
2023-05-06T20:19:58.564Z,3.80
2023-05-06T20:24:51.145Z,3.30
2023-05-06T20:29:42.822Z,4.05
2023-05-06T20:34:34.691Z,4.80
2023-05-06T20:39:26.394Z,4.35
2023-05-06T20:44:17.990Z,3.50
2023-05-06T20:49:09.586Z,3.88
2023-05-06T20:54:01.371Z,3.33
2023-05-06T20:58:54.064Z,3.92
2023-05-06T21:03:48.917Z,0.90
2023-05-06T21:08:40.692Z,0.60
2023-05-06T21:13:32.620Z,0.30
2023-05-06T21:18:24.426Z,0.40
2023-05-06T21:23:18.121Z,0.57
2023-05-06T21:28:09.817Z,0.40
2023-05-06T21:33:02.399Z,0.30
2023-05-06T21:37:54.058Z,0.57
2023-05-06T21:42:45.903Z,0.35
2023-05-06T21:47:37.603Z,0.55
2023-05-06T21:52:29.629Z,0.40
2023-05-06T21:57:21.317Z,0.63
2023-05-06T22:02:13.089Z,0.75
2023-05-06T22:07:04.902Z,0.60
2023-05-06T22:11:56.603Z,0.90
2023-05-06T22:16:48.810Z,0.50
2023-05-06T22:21:41.451Z,0.20
2023-05-06T22:26:33.274Z,0.57
2023-05-06T22:31:25.267Z,0.20
2023-05-06T22:36:16.928Z,0.20
2023-05-06T22:41:10.289Z,0.40
2023-05-06T22:46:02.237Z,0.40
2023-05-06T22:50:53.844Z,0.20
2023-05-06T22:55:45.513Z,0.30
2023-05-06T23:00:37.273Z,0.25
2023-05-06T23:05:28.912Z,0.47
2023-05-06T23:10:20.628Z,0.28
2023-05-06T23:15:12.531Z,0.57
2023-05-06T23:20:04.508Z,1.20
2023-05-06T23:24:56.259Z,1.20
2023-05-06T23:29:47.897Z,0.80
2023-05-06T23:34:39.847Z,2.25
2023-05-06T23:39:31.478Z,2.70
2023-05-06T23:44:23.130Z,8.07
2023-05-06T23:49:15.267Z,24.70
2023-05-06T23:54:06.846Z,22.77
2023-05-06T23:58:58.469Z,31.63
